Time;durP1;ratioP1;P1;durP2;ratioP2;P2;SDS_P1;SDS_P2;PMS_P1;PMS_P2;Temp;Humidity;BMP_temperature;BMP_pressure;BME280_temperature;BME280_humidity;BME280_pressure;Samples;Min_cycle;Max_cycle;Signal;HPM_P1;HPM_P2
2023/10/24 00:00:51;;;;;;;0.20;0.20;;;7.40;99.90;;;;;;5063379;28;20266;-89
2023/10/24 00:03:17;;;;;;;0.20;0.20;;;7.40;99.90;;;;;;5058319;28;20209;-89
2023/10/24 00:05:42;;;;;;;0.20;0.20;;;7.40;99.90;;;;;;5058124;28;20179;-90
2023/10/24 00:08:08;;;;;;;0.20;0.20;;;7.30;99.90;;;;;;5057752;28;20178;-89
2023/10/24 00:10:34;;;;;;;0.20;0.20;;;7.30;99.90;;;;;;5036556;28;20199;-90
2023/10/24 00:12:59;;;;;;;0.30;0.30;;;7.40;99.90;;;;;;5046869;28;20179;-90
2023/10/24 00:15:25;;;;;;;0.20;0.20;;;7.40;99.90;;;;;;5058386;28;20209;-89
2023/10/24 00:17:51;;;;;;;0.20;0.20;;;7.30;99.90;;;;;;5058408;28;20210;-90
2023/10/24 00:20:17;;;;;;;0.20;0.20;;;7.40;99.90;;;;;;5058070;28;20197;-89
2023/10/24 00:22:42;;;;;;;0.20;0.20;;;7.40;99.90;;;;;;5058677;28;20452;-90
2023/10/24 00:25:08;;;;;;;0.20;0.20;;;7.50;99.90;;;;;;5058330;28;20316;-89
2023/10/24 00:27:33;;;;;;;0.20;0.20;;;7.70;99.90;;;;;;5039579;28;20194;-89
2023/10/24 00:29:59;;;;;;;0.20;0.20;;;7.70;99.90;;;;;;5040073;28;20209;-89
2023/10/24 00:32:25;;;;;;;0.20;0.20;;;7.60;99.90;;;;;;5058168;28;20630;-89
2023/10/24 00:34:50;;;;;;;0.20;0.20;;;7.70;99.90;;;;;;5054478;28;20321;-90
2023/10/24 00:37:16;;;;;;;0.20;0.20;;;7.80;99.90;;;;;;5054613;28;20301;-89
2023/10/24 00:39:41;;;;;;;0.20;0.20;;;7.80;99.90;;;;;;5053207;28;20189;-90
2023/10/24 00:42:07;;;;;;;0.20;0.20;;;7.80;99.90;;;;;;5046922;28;20592;-90
2023/10/24 00:44:33;;;;;;;0.20;0.20;;;7.80;99.90;;;;;;5053877;28;20673;-88
2023/10/24 00:47:00;;;;;;;0.20;0.20;;;7.80;99.90;;;;;;5047199;28;20179;-89
2023/10/24 00:49:26;;;;;;;0.30;0.30;;;7.70;99.90;;;;;;5053568;28;20471;-90
2023/10/24 00:51:55;;;;;;;0.20;0.20;;;7.80;99.90;;;;;;5054550;28;20778;-90
2023/10/24 00:54:21;;;;;;;0.30;0.30;;;7.80;99.90;;;;;;5054016;28;20584;-89
2023/10/24 00:56:49;;;;;;;0.20;0.20;;;8.00;99.90;;;;;;5054219;28;20464;-90
2023/10/24 00:59:16;;;;;;;0.20;0.20;;;7.90;99.90;;;;;;5036687;28;20442;-89
2023/10/24 01:01:41;;;;;;;0.20;0.20;;;7.80;99.90;;;;;;5035758;28;20910;-90
2023/10/24 01:04:07;;;;;;;0.20;0.20;;;7.80;99.90;;;;;;5054306;28;20472;-90
2023/10/24 01:06:33;;;;;;;0.20;0.20;;;8.00;99.90;;;;;;5053849;28;20188;-90
2023/10/24 01:08:58;;;;;;;0.20;0.20;;;8.10;99.90;;;;;;5053749;28;20436;-88
2023/10/24 01:11:25;;;;;;;0.30;0.30;;;8.10;99.90;;;;;;5052782;28;20197;-89
2023/10/24 01:13:50;;;;;;;0.20;0.20;;;8.00;99.90;;;;;;5054285;28;20669;-90
2023/10/24 01:16:17;;;;;;;0.20;0.20;;;8.00;99.90;;;;;;5053138;28;20441;-89
2023/10/24 01:18:42;;;;;;;0.20;0.20;;;7.90;99.90;;;;;;5064848;28;20218;-88
2023/10/24 01:21:08;;;;;;;0.20;0.20;;;7.90;99.90;;;;;;5053813;28;20696;-90
2023/10/24 01:23:35;;;;;;;0.20;0.20;;;8.00;99.90;;;;;;5054661;28;20189;-89
2023/10/24 01:26:02;;;;;;;0.20;0.20;;;8.20;99.90;;;;;;5054034;28;20191;-89
2023/10/24 01:28:29;;;;;;;0.20;0.20;;;8.10;99.90;;;;;;5052151;28;20437;-90
2023/10/24 01:30:54;;;;;;;0.20;0.20;;;8.10;99.90;;;;;;5042462;28;20440;-90
2023/10/24 01:33:21;;;;;;;0.20;0.20;;;8.10;99.90;;;;;;5053938;28;20445;-89
2023/10/24 01:35:46;;;;;;;0.20;0.20;;;8.10;99.90;;;;;;5036253;28;20814;-90
2023/10/24 01:38:12;;;;;;;0.30;0.30;;;8.20;99.90;;;;;;5058494;28;20570;-90
2023/10/24 01:40:37;;;;;;;0.20;0.20;;;8.20;99.90;;;;;;5057171;28;20185;-90
2023/10/24 01:43:03;;;;;;;0.20;0.20;;;8.30;99.90;;;;;;5053173;28;20278;-89
2023/10/24 01:45:29;;;;;;;0.20;0.20;;;8.30;99.90;;;;;;5053227;28;20187;-89
2023/10/24 01:47:54;;;;;;;0.20;0.20;;;8.20;99.90;;;;;;5054626;28;20498;-89
2023/10/24 01:50:20;;;;;;;0.20;0.20;;;8.30;99.90;;;;;;5058748;28;20218;-89
2023/10/24 01:52:45;;;;;;;0.20;0.20;;;8.40;99.90;;;;;;5036870;28;20170;-88
2023/10/24 01:55:11;;;;;;;0.20;0.20;;;8.40;99.90;;;;;;5034799;28;20222;-87
2023/10/24 01:57:36;;;;;;;0.20;0.20;;;8.50;99.90;;;;;;5035529;28;20217;-89
2023/10/24 02:00:03;;;;;;;0.20;0.20;;;8.50;99.90;;;;;;5034290;28;20360;-89
2023/10/24 02:02:29;;;;;;;0.20;0.20;;;8.50;99.90;;;;;;5052645;28;20584;-90
2023/10/24 02:04:55;;;;;;;0.20;0.20;;;8.50;99.90;;;;;;5035306;28;20472;-89
2023/10/24 02:07:20;;;;;;;0.20;0.20;;;8.50;99.90;;;;;;5053126;28;20195;-89
2023/10/24 02:09:46;;;;;;;0.20;0.20;;;8.50;99.90;;;;;;5052852;28;20308;-89
2023/10/24 02:12:11;;;;;;;0.20;0.20;;;8.50;99.90;;;;;;5053422;28;20652;-88
2023/10/24 02:14:37;;;;;;;0.20;0.20;;;8.50;99.90;;;;;;5053086;28;20179;-89
2023/10/24 02:17:03;;;;;;;0.20;0.20;;;8.50;99.90;;;;;;5052791;28;20203;-89
2023/10/24 02:19:29;;;;;;;0.20;0.20;;;8.70;99.90;;;;;;5052761;28;20199;-89
2023/10/24 02:21:54;;;;;;;0.20;0.20;;;8.60;99.90;;;;;;5052561;28;20471;-90
2023/10/24 02:24:20;;;;;;;0.20;0.20;;;8.70;99.90;;;;;;5052981;28;20145;-89
2023/10/24 02:26:45;;;;;;;0.20;0.20;;;8.60;99.90;;;;;;5052920;28;20245;-90
2023/10/24 02:29:11;;;;;;;0.20;0.20;;;8.70;99.90;;;;;;5044937;28;20551;-90
2023/10/24 02:31:37;;;;;;;0.20;0.20;;;8.70;99.90;;;;;;5052561;28;20183;-88
2023/10/24 02:34:02;;;;;;;;;;;8.70;99.90;;;;;;5052808;28;19905;-90
2023/10/24 02:36:28;;;;;;;;;;;8.60;99.90;;;;;;5051962;28;19948;-89
2023/10/24 02:38:53;;;;;;;;;;;8.70;99.90;;;;;;5051359;28;19951;-90
2023/10/24 02:41:19;;;;;;;;;;;8.60;99.90;;;;;;5035273;28;19916;-90
2023/10/24 02:43:44;;;;;;;;;;;8.70;99.90;;;;;;5035222;28;19915;-89
2023/10/24 02:46:09;;;;;;;;;;;8.70;99.90;;;;;;5053168;28;19908;-91
2023/10/24 02:48:35;;;;;;;;;;;8.70;99.90;;;;;;5053464;28;19917;-90
2023/10/24 02:51:00;;;;;;;;;;;8.70;99.90;;;;;;5051689;28;19909;-90
2023/10/24 02:53:26;;;;;;;;;;;8.70;99.90;;;;;;5033715;28;20361;-90
2023/10/24 02:55:52;;;;;;;;;;;8.80;99.90;;;;;;5052289;28;19913;-91
2023/10/24 02:58:18;;;;;;;;;;;8.80;99.90;;;;;;5050892;28;19913;-91
2023/10/24 03:00:44;;;;;;;;;;;8.80;99.90;;;;;;5039347;28;20073;-90
2023/10/24 03:03:10;;;;;;;;;;;8.90;99.90;;;;;;5053338;28;19908;-89
2023/10/24 03:05:36;;;;;;;;;;;8.90;99.90;;;;;;5053289;28;19963;-90
2023/10/24 03:08:02;;;;;;;;;;;8.90;99.90;;;;;;5053221;28;20372;-89
2023/10/24 03:10:28;;;;;;;;;;;8.90;99.90;;;;;;5050468;28;19916;-90
2023/10/24 03:12:53;;;;;;;;;;;8.90;99.90;;;;;;5052234;28;20281;-90
2023/10/24 03:15:19;;;;;;;;;;;8.90;99.90;;;;;;5053250;28;20257;-89
2023/10/24 03:17:44;;;;;;;;;;;8.90;99.90;;;;;;5053453;28;20026;-90
2023/10/24 03:20:10;;;;;;;;;;;8.90;99.90;;;;;;5039077;28;19916;-90
2023/10/24 03:22:35;;;;;;;;;;;8.90;99.90;;;;;;5049107;28;19913;-91
2023/10/24 03:25:01;;;;;;;;;;;8.90;99.90;;;;;;5053739;28;19923;-91
2023/10/24 03:27:26;;;;;;;;;;;9.00;99.90;;;;;;5035224;28;19909;-90
2023/10/24 03:29:52;;;;;;;0.20;0.20;;;9.10;99.90;;;;;;5051822;28;20373;-90
2023/10/24 03:32:18;;;;;;;0.20;0.20;;;9.10;99.90;;;;;;5051264;28;20206;-88
2023/10/24 03:34:43;;;;;;;0.20;0.20;;;9.20;99.90;;;;;;5052015;28;20231;-90
2023/10/24 03:37:09;;;;;;;0.20;0.20;;;9.20;99.90;;;;;;5052188;28;20217;-90
2023/10/24 03:39:34;;;;;;;0.20;0.20;;;9.20;99.90;;;;;;5053823;28;20281;-88
2023/10/24 03:42:00;;;;;;;0.20;0.20;;;9.30;99.90;;;;;;5052288;28;20190;-91
2023/10/24 03:44:25;;;;;;;0.20;0.20;;;9.30;99.90;;;;;;5051902;28;20187;-89
2023/10/24 03:46:51;;;;;;;0.20;0.20;;;9.30;99.90;;;;;;5051276;28;20190;-90
2023/10/24 03:49:16;;;;;;;0.20;0.20;;;9.30;99.90;;;;;;5055971;28;20278;-88
2023/10/24 03:51:42;;;;;;;0.20;0.20;;;9.40;99.90;;;;;;5052412;28;20185;-91
2023/10/24 03:54:08;;;;;;;0.20;0.20;;;9.40;99.90;;;;;;5052656;28;20183;-91
2023/10/24 03:56:35;;;;;;;0.20;0.20;;;9.40;99.90;;;;;;5052392;28;20558;-92
2023/10/24 03:59:01;;;;;;;0.20;0.20;;;9.40;99.90;;;;;;5051920;28;20205;-90
2023/10/24 04:01:26;;;;;;;0.20;0.20;;;9.40;99.90;;;;;;5051444;28;20932;-91
2023/10/24 04:03:52;;;;;;;0.17;0.17;;;9.50;99.90;;;;;;5051968;28;20595;-92
2023/10/24 04:06:17;;;;;;;0.20;0.20;;;9.50;99.90;;;;;;5034041;28;20179;-92
2023/10/24 04:08:44;;;;;;;0.20;0.20;;;9.60;99.90;;;;;;5052525;28;20241;-93
2023/10/24 04:11:16;;;;;;;0.20;0.20;;;9.60;99.90;;;;;;5055630;28;20177;-90
2023/10/24 04:13:46;;;;;;;0.20;0.20;;;9.60;99.90;;;;;;5056631;28;20452;-90
2023/10/24 04:16:12;;;;;;;0.20;0.20;;;9.70;99.90;;;;;;5055228;28;20432;-91
2023/10/24 04:18:39;;;;;;;0.20;0.20;;;9.70;99.90;;;;;;5055455;28;20965;-92
2023/10/24 04:21:05;;;;;;;0.20;0.20;;;9.70;99.90;;;;;;5054852;28;20994;-90
2023/10/24 04:23:30;;;;;;;0.20;0.20;;;9.70;99.90;;;;;;5054999;28;20473;-89
2023/10/24 04:25:56;;;;;;;0.13;0.13;;;9.70;99.90;;;;;;5048611;28;20547;-90
2023/10/24 04:28:21;;;;;;;0.20;0.20;;;9.80;99.90;;;;;;5050634;28;20190;-89
2023/10/24 04:30:47;;;;;;;0.30;0.30;;;9.80;99.90;;;;;;5060605;28;20174;-88
2023/10/24 04:33:13;;;;;;;0.20;0.20;;;9.80;99.90;;;;;;5061079;28;20638;-89
2023/10/24 04:35:47;;;;;;;0.20;0.20;;;9.90;99.90;;;;;;5055600;28;21373;-91
2023/10/24 04:38:13;;;;;;;0.20;0.20;;;9.80;99.90;;;;;;5055031;28;20484;-90
2023/10/24 04:40:39;;;;;;;0.20;0.20;;;9.90;99.90;;;;;;5055066;28;20414;-90
2023/10/24 04:43:08;;;;;;;0.20;0.20;;;9.90;99.90;;;;;;5053199;28;20436;-89
2023/10/24 04:45:35;;;;;;;0.20;0.20;;;9.90;99.90;;;;;;5064796;28;20421;-86
2023/10/24 04:48:01;;;;;;;0.20;0.20;;;9.90;99.90;;;;;;5053433;28;20511;-89
2023/10/24 04:50:27;;;;;;;0.20;0.20;;;10.00;99.90;;;;;;5036729;28;21023;-88
2023/10/24 04:52:54;;;;;;;0.20;0.20;;;10.00;99.90;;;;;;5053887;28;20460;-87
2023/10/24 04:55:20;;;;;;;0.20;0.20;;;10.00;99.90;;;;;;5049876;28;20452;-91
2023/10/24 04:57:46;;;;;;;0.20;0.20;;;10.00;99.90;;;;;;5054853;28;20476;-89
2023/10/24 05:00:12;;;;;;;0.20;0.20;;;10.00;99.90;;;;;;5054113;28;20495;-89
2023/10/24 05:02:42;;;;;;;0.20;0.20;;;10.00;99.90;;;;;;5055326;28;20582;-89
2023/10/24 05:05:08;;;;;;;0.20;0.20;;;10.00;99.90;;;;;;5037697;28;20272;-90
2023/10/24 05:07:33;;;;;;;0.20;0.20;;;9.90;99.90;;;;;;5057406;28;20476;-89
2023/10/24 05:09:59;;;;;;;0.13;0.13;;;10.00;99.90;;;;;;5053113;28;20248;-91
2023/10/24 05:12:24;;;;;;;0.20;0.20;;;10.00;99.90;;;;;;5052176;28;20192;-89
2023/10/24 05:14:50;;;;;;;0.20;0.20;;;10.00;99.90;;;;;;5055419;28;20193;-92
2023/10/24 05:17:16;;;;;;;0.20;0.20;;;10.00;99.90;;;;;;5052105;28;20225;-92
2023/10/24 05:19:42;;;;;;;0.20;0.20;;;10.00;99.90;;;;;;5053605;28;20677;-90
2023/10/24 05:22:08;;;;;;;0.20;0.20;;;10.00;99.90;;;;;;5053879;28;20543;-91
2023/10/24 05:24:34;;;;;;;0.20;0.20;;;10.00;99.90;;;;;;5053514;28;20441;-92
2023/10/24 05:27:00;;;;;;;0.20;0.20;;;9.90;99.90;;;;;;5055035;28;20414;-91
2023/10/24 05:29:26;;;;;;;0.10;0.10;;;9.90;99.90;;;;;;5053842;28;20437;-92
2023/10/24 05:31:51;;;;;;;0.10;0.10;;;10.00;99.90;;;;;;5053524;28;20179;-91
2023/10/24 05:34:17;;;;;;;0.20;0.20;;;9.90;99.90;;;;;;5053340;28;20655;-93
2023/10/24 05:36:42;;;;;;;0.20;0.20;;;10.00;99.90;;;;;;5054571;28;20245;-95
2023/10/24 05:39:08;;;;;;;0.20;0.20;;;10.00;99.90;;;;;;5055304;28;20546;-95
2023/10/24 05:41:33;;;;;;;0.10;0.10;;;9.90;99.90;;;;;;5054965;28;21043;-95
2023/10/24 05:43:59;;;;;;;0.20;0.20;;;9.90;99.90;;;;;;5050763;28;20220;-92
2023/10/24 05:46:24;;;;;;;0.20;0.20;;;9.90;99.90;;;;;;5066407;28;20194;-94
2023/10/24 05:48:50;;;;;;;0.20;0.20;;;9.90;99.90;;;;;;5056527;28;20186;-94
2023/10/24 05:51:24;;;;;;;0.20;0.20;;;9.90;99.90;;;;;;5057367;28;20186;-95
2023/10/24 05:53:52;;;;;;;0.20;0.20;;;9.90;99.90;;;;;;5055988;28;20668;-93
2023/10/24 05:56:17;;;;;;;0.20;0.20;;;10.00;99.90;;;;;;5056609;28;20903;-92
2023/10/24 05:58:44;;;;;;;0.20;0.20;;;10.00;99.90;;;;;;5043628;28;20537;-95
2023/10/24 06:01:09;;;;;;;0.20;0.20;;;9.90;99.90;;;;;;5037073;28;20195;-93
2023/10/24 06:03:35;;;;;;;0.20;0.20;;;9.90;99.90;;;;;;5059046;28;20527;-93
2023/10/24 06:06:00;;;;;;;0.10;0.10;;;9.90;99.90;;;;;;5053977;28;20213;-93
2023/10/24 06:08:26;;;;;;;0.20;0.20;;;9.90;99.90;;;;;;5054348;28;20253;-92
2023/10/24 06:10:56;;;;;;;0.20;0.20;;;9.90;99.90;;;;;;5054586;28;20198;-95
2023/10/24 06:13:22;;;;;;;0.10;0.10;;;9.90;99.90;;;;;;5054859;28;20197;-93
2023/10/24 06:15:48;;;;;;;0.10;0.10;;;10.00;99.90;;;;;;5053865;28;20472;-95
2023/10/24 06:18:14;;;;;;;0.20;0.20;;;10.00;99.90;;;;;;5053182;28;22623;-90
2023/10/24 06:20:39;;;;;;;0.20;0.20;;;10.00;99.90;;;;;;5053598;28;20186;-92
2023/10/24 06:23:06;;;;;;;0.20;0.20;;;10.00;99.90;;;;;;5053175;28;20214;-92
2023/10/24 06:25:41;;;;;;;0.20;0.20;;;10.00;99.90;;;;;;5051801;28;20182;-90
2023/10/24 06:28:08;;;;;;;0.10;0.10;;;10.00;99.90;;;;;;5050990;28;20429;-89
2023/10/24 06:30:34;;;;;;;0.20;0.20;;;10.00;99.90;;;;;;5031530;28;20458;-88
2023/10/24 06:33:00;;;;;;;0.10;0.10;;;10.00;99.90;;;;;;5049312;28;20439;-89
2023/10/24 06:35:25;;;;;;;0.17;0.17;;;10.00;99.90;;;;;;5052783;28;20521;-95
2023/10/24 06:37:51;;;;;;;0.20;0.20;;;9.90;99.90;;;;;;5053926;28;20298;-94
2023/10/24 06:40:17;;;;;;;0.20;0.20;;;10.00;99.90;;;;;;5054102;28;20032;-96
2023/10/24 06:42:44;;;;;;;0.20;0.20;;;10.00;99.90;;;;;;5053252;28;20498;-94
2023/10/24 06:45:11;;;;;;;0.20;0.20;;;10.00;99.90;;;;;;5056311;28;20434;-95
2023/10/24 06:47:40;;;;;;;0.20;0.20;;;10.00;99.90;;;;;;5056034;28;20507;-96
2023/10/24 06:50:07;;;;;;;0.20;0.20;;;10.00;99.90;;;;;;5052091;28;20427;-95
2023/10/24 06:52:34;;;;;;;0.20;0.20;;;10.00;99.90;;;;;;5035275;28;20449;-95
2023/10/24 06:55:00;;;;;;;0.20;0.20;;;10.00;99.90;;;;;;5054488;28;20421;-96
2023/10/24 06:57:25;;;;;;;0.10;0.10;;;10.00;99.90;;;;;;5035404;28;20887;-96
2023/10/24 06:59:51;;;;;;;0.20;0.20;;;10.00;99.90;;;;;;5053952;28;20510;-96
2023/10/24 07:02:17;;;;;;;0.20;0.20;;;10.00;99.90;;;;;;5041988;28;20210;-95
2023/10/24 07:04:43;;;;;;;0.10;0.10;;;10.00;99.90;;;;;;5052526;28;20187;-96
2023/10/24 07:07:08;;;;;;;0.20;0.20;;;10.00;99.90;;;;;;5053019;28;20989;-95
2023/10/24 07:09:34;;;;;;;0.20;0.20;;;10.00;99.90;;;;;;5051824;28;20213;-93
2023/10/24 07:11:59;;;;;;;0.20;0.20;;;10.00;99.90;;;;;;5058272;28;20190;-94
2023/10/24 07:14:25;;;;;;;0.17;0.17;;;10.00;99.90;;;;;;5051489;28;20192;-95
2023/10/24 07:16:51;;;;;;;0.10;0.10;;;10.00;99.90;;;;;;5046588;28;20214;-96
2023/10/24 07:19:20;;;;;;;0.20;0.20;;;10.00;99.90;;;;;;5036098;28;20257;-96
2023/10/24 07:21:46;;;;;;;0.20;0.20;;;10.00;99.90;;;;;;5031338;28;20457;-95
2023/10/24 07:24:12;;;;;;;0.20;0.20;;;10.00;99.90;;;;;;5025759;28;20460;-96
2023/10/24 07:26:38;;;;;;;0.10;0.10;;;9.90;99.90;;;;;;5054173;28;20187;-96
2023/10/24 07:29:03;;;;;;;0.20;0.20;;;9.90;99.90;;;;;;5031487;28;20176;-96
2023/10/24 07:31:29;;;;;;;0.20;0.20;;;9.90;99.90;;;;;;5053118;28;20195;-96
2023/10/24 07:33:54;;;;;;;0.20;0.20;;;9.90;99.90;;;;;;5053567;28;20627;-94
2023/10/24 07:36:20;;;;;;;0.20;0.20;;;9.90;99.90;;;;;;5055183;28;20187;-95
2023/10/24 07:38:45;;;;;;;0.20;0.20;;;10.00;99.90;;;;;;5055495;28;20222;-96
2023/10/24 07:41:11;;;;;;;0.20;0.20;;;9.90;99.90;;;;;;5071273;28;20181;-94
2023/10/24 07:43:37;;;;;;;0.10;0.10;;;10.00;99.90;;;;;;5059379;28;21033;-93
2023/10/24 07:46:03;;;;;;;0.20;0.20;;;10.00;99.90;;;;;;5080381;28;20260;-92
2023/10/24 07:48:29;;;;;;;0.20;0.20;;;10.00;99.90;;;;;;5078222;28;20456;-93
2023/10/24 07:50:56;;;;;;;0.10;0.10;;;10.00;99.90;;;;;;5068201;28;20359;-90
2023/10/24 07:53:23;;;;;;;0.20;0.20;;;10.00;99.90;;;;;;5065938;28;20025;-90
2023/10/24 07:55:49;;;;;;;0.20;0.20;;;10.00;99.90;;;;;;5064732;28;20433;-93
2023/10/24 07:58:17;;;;;;;0.20;0.20;;;10.00;99.90;;;;;;5062810;28;20306;-93
2023/10/24 08:00:47;;;;;;;0.20;0.20;;;10.00;99.90;;;;;;5060371;28;20187;-93
2023/10/24 08:03:14;;;;;;;0.20;0.20;;;10.00;99.90;;;;;;5061249;28;20424;-94
2023/10/24 08:05:40;;;;;;;0.10;0.10;;;10.00;99.90;;;;;;5057959;28;20565;-95
2023/10/24 08:08:06;;;;;;;0.10;0.10;;;10.00;99.90;;;;;;5057731;28;20955;-95
2023/10/24 08:10:33;;;;;;;0.20;0.20;;;10.00;99.90;;;;;;5050545;28;20192;-94
2023/10/24 08:12:59;;;;;;;0.20;0.20;;;10.00;99.90;;;;;;5032839;28;20950;-94
2023/10/24 08:15:24;;;;;;;0.20;0.20;;;10.00;99.90;;;;;;5062723;28;20413;-93
2023/10/24 08:17:51;;;;;;;0.20;0.20;;;10.10;99.90;;;;;;5057436;28;20829;-93
2023/10/24 08:20:17;;;;;;;0.20;0.20;;;10.10;99.90;;;;;;5053630;28;20182;-92
2023/10/24 08:22:43;;;;;;;0.10;0.10;;;10.10;99.90;;;;;;5056102;28;20457;-90
2023/10/24 08:25:08;;;;;;;0.10;0.10;;;10.10;99.90;;;;;;5056350;28;20826;-90
2023/10/24 08:27:34;;;;;;;0.10;0.10;;;10.10;99.90;;;;;;5055303;28;21039;-89
2023/10/24 08:30:00;;;;;;;0.20;0.20;;;10.10;99.90;;;;;;5036749;28;20182;-92
2023/10/24 08:32:25;;;;;;;0.20;0.20;;;10.10;99.90;;;;;;5050808;28;20214;-87
2023/10/24 08:34:51;;;;;;;0.20;0.20;;;10.10;99.90;;;;;;5049182;28;20500;-92
2023/10/24 08:37:16;;;;;;;0.20;0.20;;;10.20;99.90;;;;;;5051938;28;20224;-92
2023/10/24 08:39:42;;;;;;;0.10;0.10;;;10.20;99.90;;;;;;5055561;28;20272;-91
2023/10/24 08:42:10;;;;;;;0.20;0.20;;;10.20;99.90;;;;;;5053689;28;20187;-89
2023/10/24 08:44:37;;;;;;;0.20;0.20;;;10.20;99.90;;;;;;5053611;28;20210;-88
2023/10/24 08:47:04;;;;;;;0.20;0.20;;;10.20;99.90;;;;;;5053656;28;20426;-90
2023/10/24 08:49:31;;;;;;;0.10;0.10;;;10.20;99.90;;;;;;5053928;28;20439;-88
2023/10/24 08:51:56;;;;;;;0.20;0.20;;;10.30;99.90;;;;;;5049683;28;20528;-88
2023/10/24 08:54:22;;;;;;;0.10;0.10;;;10.30;99.90;;;;;;5051625;28;20544;-89
2023/10/24 08:56:48;;;;;;;0.20;0.20;;;10.30;99.90;;;;;;5051277;28;20210;-89
2023/10/24 08:59:18;;;;;;;0.20;0.20;;;10.30;99.90;;;;;;5051516;28;20266;-87
2023/10/24 09:01:44;;;;;;;0.20;0.20;;;10.30;99.90;;;;;;5053323;28;20452;-91
2023/10/24 09:04:11;;;;;;;0.20;0.20;;;10.30;99.90;;;;;;5051921;28;20463;-88
2023/10/24 09:06:37;;;;;;;0.10;0.10;;;10.30;99.90;;;;;;5050432;28;20445;-89
2023/10/24 09:09:03;;;;;;;0.10;0.10;;;10.30;99.90;;;;;;5035089;28;20465;-88
2023/10/24 09:11:52;;;;;;;0.20;0.20;;;10.30;99.90;;;;;;5052790;28;21248;-91
2023/10/24 09:14:18;;;;;;;0.10;0.10;;;10.30;99.90;;;;;;5052244;28;20178;-90
2023/10/24 09:16:43;;;;;;;0.10;0.10;;;10.30;99.90;;;;;;5052261;28;20494;-89
2023/10/24 09:19:15;;;;;;;0.20;0.20;;;10.30;99.90;;;;;;5053091;28;20194;-91
2023/10/24 09:21:41;;;;;;;0.10;0.10;;;10.30;99.90;;;;;;5052644;28;20213;-89
2023/10/24 09:24:12;;;;;;;0.10;0.10;;;10.30;99.90;;;;;;5051232;28;21114;-88
2023/10/24 09:26:38;;;;;;;0.20;0.20;;;10.30;99.90;;;;;;5052813;28;20190;-89
2023/10/24 09:29:07;;;;;;;0.10;0.10;;;10.30;99.90;;;;;;5055935;28;20433;-88
2023/10/24 09:31:33;;;;;;;0.20;0.20;;;10.30;99.90;;;;;;5050087;28;20449;-88
2023/10/24 09:33:59;;;;;;;0.20;0.20;;;10.30;99.90;;;;;;5033854;28;20988;-90
2023/10/24 09:36:27;;;;;;;0.20;0.20;;;10.30;99.90;;;;;;5053151;28;20437;-89
2023/10/24 09:38:54;;;;;;;0.10;0.10;;;10.30;99.90;;;;;;5051940;28;20206;-88
2023/10/24 09:41:20;;;;;;;0.20;0.20;;;10.30;99.90;;;;;;5049421;28;20440;-88
2023/10/24 09:43:48;;;;;;;0.10;0.10;;;10.30;99.90;;;;;;5021973;28;20430;-86
2023/10/24 09:46:19;;;;;;;0.20;0.20;;;10.30;99.90;;;;;;5051705;28;20183;-87
2023/10/24 09:48:46;;;;;;;0.20;0.20;;;10.30;99.90;;;;;;5053569;28;20858;-88
2023/10/24 09:51:13;;;;;;;0.20;0.20;;;10.30;99.90;;;;;;5047409;28;20429;-88
2023/10/24 09:53:38;;;;;;;0.20;0.20;;;10.40;99.90;;;;;;5049872;28;20421;-88
2023/10/24 09:56:05;;;;;;;0.20;0.20;;;10.30;99.90;;;;;;5051543;28;20425;-89
2023/10/24 09:58:31;;;;;;;0.20;0.20;;;10.40;99.90;;;;;;5060613;28;20252;-90
2023/10/24 10:00:57;;;;;;;0.17;0.17;;;10.40;99.90;;;;;;5063345;28;20463;-86
2023/10/24 10:03:23;;;;;;;;;;;10.40;99.90;;;;;;5051830;28;20441;-87
2023/10/24 10:05:49;;;;;;;0.10;0.10;;;10.40;99.90;;;;;;5051918;28;20584;-88
2023/10/24 10:08:18;;;;;;;0.20;0.20;;;10.40;99.90;;;;;;5049048;28;20201;-87
2023/10/24 10:10:46;;;;;;;0.10;0.10;;;10.40;99.90;;;;;;5051331;28;20426;-88
2023/10/24 10:13:15;;;;;;;0.10;0.10;;;10.40;99.90;;;;;;5033082;28;20490;-89
2023/10/24 10:16:09;;;;;;;0.20;0.20;;;10.40;99.90;;;;;;5034340;28;20445;-87
2023/10/24 10:19:01;;;;;;;0.20;0.20;;;10.40;99.90;;;;;;5049757;28;20536;-89
2023/10/24 10:21:46;;;;;;;0.20;0.20;;;10.40;99.90;;;;;;5020914;28;20444;-89
2023/10/24 10:24:53;;;;;;;0.20;0.20;;;10.40;99.90;;;;;;5038317;28;20436;-91
2023/10/24 10:27:57;;;;;;;0.20;0.20;;;10.40;99.90;;;;;;5050435;28;20467;-90
2023/10/24 10:30:32;;;;;;;0.20;0.20;;;10.40;99.90;;;;;;5017227;28;20432;-90
2023/10/24 10:33:14;;;;;;;0.20;0.20;;;10.40;99.90;;;;;;5032879;28;20449;-91
2023/10/24 10:35:58;;;;;;;0.10;0.10;;;10.40;99.90;;;;;;5033719;28;20508;-92
2023/10/24 10:38:35;;;;;;;0.10;0.10;;;10.40;99.90;;;;;;5051899;28;20488;-91
2023/10/24 10:41:29;;;;;;;0.20;0.20;;;10.40;99.90;;;;;;5034603;28;20429;-91
2023/10/24 10:43:59;;;;;;;0.17;0.17;;;10.40;99.90;;;;;;5048791;28;20952;-91
2023/10/24 10:46:27;;;;;;;0.20;0.20;;;10.40;99.90;;;;;;5050824;28;20527;-89
2023/10/24 10:48:56;;;;;;;0.20;0.20;;;10.40;99.90;;;;;;5053660;28;20440;-90
2023/10/24 10:51:28;;;;;;;0.20;0.20;;;10.50;99.90;;;;;;5044692;28;20987;-88
2023/10/24 10:54:09;;;;;;;0.20;0.20;;;10.50;99.90;;;;;;5049761;28;20451;-89
2023/10/24 10:56:35;;;;;;;0.20;0.20;;;10.50;99.90;;;;;;5050809;28;20500;-88
2023/10/24 10:59:07;;;;;;;0.20;0.20;;;10.50;99.90;;;;;;5049604;28;20456;-89
2023/10/24 11:01:50;;;;;;;0.20;0.20;;;10.50;99.90;;;;;;5024666;28;20841;-89
2023/10/24 11:04:16;;;;;;;0.20;0.20;;;10.50;99.90;;;;;;5048986;28;20563;-87
2023/10/24 11:06:53;;;;;;;0.10;0.10;;;10.50;99.90;;;;;;5050164;28;20469;-88
2023/10/24 11:09:33;;;;;;;0.10;0.10;;;10.50;99.90;;;;;;5031496;28;20445;-87
2023/10/24 11:12:20;;;;;;;0.20;0.20;;;10.50;99.90;;;;;;5050283;28;20949;-89
2023/10/24 11:15:09;;;;;;;0.20;0.20;;;10.50;99.90;;;;;;5049630;28;20421;-88
2023/10/24 11:17:36;;;;;;;0.10;0.10;;;10.50;99.90;;;;;;5046032;28;20570;-86
2023/10/24 11:20:05;;;;;;;0.20;0.20;;;10.50;99.90;;;;;;5050723;28;20421;-89
2023/10/24 11:22:31;;;;;;;0.10;0.10;;;10.50;99.90;;;;;;5049101;28;20444;-89
2023/10/24 11:24:58;;;;;;;0.10;0.10;;;10.50;99.90;;;;;;5046007;28;20528;-89
2023/10/24 11:27:23;;;;;;;0.20;0.20;;;10.50;99.90;;;;;;5050558;28;20418;-88
2023/10/24 11:29:50;;;;;;;0.20;0.20;;;10.50;99.90;;;;;;5032351;28;20437;-88
2023/10/24 11:32:19;;;;;;;0.17;0.17;;;10.50;99.90;;;;;;5028762;28;20190;-88
2023/10/24 11:34:46;;;;;;;0.20;0.20;;;10.50;99.90;;;;;;5050147;28;20464;-90
2023/10/24 11:37:11;;;;;;;0.20;0.20;;;10.50;99.90;;;;;;5051665;28;20564;-92
2023/10/24 11:39:41;;;;;;;0.20;0.20;;;10.50;99.90;;;;;;5051144;28;20528;-91
2023/10/24 11:42:06;;;;;;;0.10;0.10;;;10.50;99.90;;;;;;5050783;28;20452;-91
2023/10/24 11:44:32;;;;;;;0.20;0.20;;;10.50;99.90;;;;;;5052606;28;20933;-91
2023/10/24 11:46:57;;;;;;;0.17;0.17;;;10.50;99.90;;;;;;5051252;28;20185;-90
2023/10/24 11:49:33;;;;;;;0.20;0.20;;;10.50;99.90;;;;;;5051395;28;20191;-89
2023/10/24 11:51:58;;;;;;;0.20;0.20;;;10.50;99.90;;;;;;5054921;28;20182;-93
2023/10/24 11:54:26;;;;;;;0.20;0.20;;;10.50;99.90;;;;;;5051209;28;20440;-90
2023/10/24 11:56:56;;;;;;;0.20;0.20;;;10.50;99.90;;;;;;5048939;28;20305;-90
2023/10/24 11:59:21;;;;;;;0.10;0.10;;;10.50;99.90;;;;;;5051136;28;20446;-90
2023/10/24 12:01:47;;;;;;;0.10;0.10;;;10.50;99.90;;;;;;5050311;28;20509;-90
2023/10/24 12:04:13;;;;;;;0.10;0.10;;;10.60;99.90;;;;;;5051485;28;20266;-91
2023/10/24 12:06:40;;;;;;;0.10;0.10;;;10.60;99.90;;;;;;5049951;28;20202;-93
2023/10/24 12:09:06;;;;;;;0.10;0.10;;;10.60;99.90;;;;;;5048387;28;20448;-89
2023/10/24 12:11:35;;;;;;;0.10;0.10;;;10.60;99.90;;;;;;5050025;28;20448;-91
2023/10/24 12:14:02;;;;;;;0.10;0.10;;;10.60;99.90;;;;;;5053141;28;20413;-92
2023/10/24 12:16:31;;;;;;;0.10;0.10;;;10.60;99.90;;;;;;5050397;28;20429;-87
2023/10/24 12:18:57;;;;;;;0.20;0.20;;;10.70;99.90;;;;;;5038090;28;20472;-88
2023/10/24 12:21:23;;;;;;;0.10;0.10;;;10.60;99.90;;;;;;5053552;28;20436;-91
2023/10/24 12:23:49;;;;;;;0.10;0.10;;;10.70;99.90;;;;;;5032109;28;20187;-89
2023/10/24 12:26:15;;;;;;;0.10;0.10;;;10.60;99.90;;;;;;5030670;28;20821;-88
2023/10/24 12:28:43;;;;;;;0.10;0.10;;;10.70;99.90;;;;;;5032440;28;20925;-88
2023/10/24 12:31:10;;;;;;;0.20;0.20;;;10.60;99.90;;;;;;5052378;28;20183;-88
2023/10/24 12:33:36;;;;;;;0.10;0.10;;;10.60;99.90;;;;;;5057615;28;20464;-89
2023/10/24 12:36:02;;;;;;;0.20;0.20;;;10.70;99.90;;;;;;5053952;28;21231;-91
2023/10/24 12:38:28;;;;;;;0.20;0.20;;;10.70;99.90;;;;;;5035973;28;20218;-90
2023/10/24 12:40:54;;;;;;;0.10;0.10;;;10.70;99.90;;;;;;5053074;28;20425;-88
2023/10/24 12:43:20;;;;;;;0.10;0.10;;;10.70;99.90;;;;;;5034378;28;20780;-89
2023/10/24 12:45:45;;;;;;;0.10;0.10;;;10.70;99.90;;;;;;5052773;28;20210;-90
2023/10/24 12:48:11;;;;;;;0.10;0.10;;;10.70;99.90;;;;;;5053823;28;20179;-90
2023/10/24 12:50:37;;;;;;;0.10;0.10;;;10.70;99.90;;;;;;5053624;28;20819;-88
2023/10/24 12:53:04;;;;;;;0.10;0.10;;;10.70;99.90;;;;;;5036203;28;20432;-90
2023/10/24 12:55:29;;;;;;;0.10;0.10;;;10.70;99.90;;;;;;5034910;28;20417;-87
2023/10/24 12:57:55;;;;;;;0.20;0.20;;;10.80;99.90;;;;;;5053221;28;20526;-88